sensor_id;sensor_type;location;lat;lon;timestamp;P1;durP1;ratioP1;P2;durP2;ratioP2
6549;SDS011;15142;48.888;9.134;2023-06-26T00:01:12;13.10;;;6.90;;
6549;SDS011;15142;48.888;9.134;2023-06-26T00:03:41;11.50;;;7.77;;
6549;SDS011;15142;48.888;9.134;2023-06-26T00:06:09;13.90;;;7.30;;
6549;SDS011;15142;48.888;9.134;2023-06-26T00:08:38;10.73;;;7.50;;
6549;SDS011;15142;48.888;9.134;2023-06-26T00:11:06;12.97;;;8.07;;
6549;SDS011;15142;48.888;9.134;2023-06-26T00:13:37;10.13;;;7.23;;
6549;SDS011;15142;48.888;9.134;2023-06-26T00:16:06;17.77;;;7.70;;
6549;SDS011;15142;48.888;9.134;2023-06-26T00:18:34;10.93;;;6.90;;
6549;SDS011;15142;48.888;9.134;2023-06-26T00:21:03;14.00;;;7.93;;
6549;SDS011;15142;48.888;9.134;2023-06-26T00:23:31;12.63;;;7.70;;
6549;SDS011;15142;48.888;9.134;2023-06-26T00:26:02;12.83;;;7.90;;
6549;SDS011;15142;48.888;9.134;2023-06-26T00:28:31;14.23;;;8.80;;
6549;SDS011;15142;48.888;9.134;2023-06-26T00:31:02;15.30;;;8.33;;
6549;SDS011;15142;48.888;9.134;2023-06-26T00:33:30;13.73;;;8.77;;
6549;SDS011;15142;48.888;9.134;2023-06-26T00:35:59;8.50;;;6.87;;
6549;SDS011;15142;48.888;9.134;2023-06-26T00:38:29;12.90;;;7.90;;
6549;SDS011;15142;48.888;9.134;2023-06-26T00:40:58;11.43;;;8.00;;
6549;SDS011;15142;48.888;9.134;2023-06-26T00:43:28;13.73;;;7.80;;
6549;SDS011;15142;48.888;9.134;2023-06-26T00:45:57;16.27;;;8.93;;
6549;SDS011;15142;48.888;9.134;2023-06-26T00:48:28;17.20;;;9.17;;
6549;SDS011;15142;48.888;9.134;2023-06-26T00:50:57;12.87;;;8.47;;
6549;SDS011;15142;48.888;9.134;2023-06-26T00:53:26;13.60;;;8.50;;
6549;SDS011;15142;48.888;9.134;2023-06-26T00:55:55;11.40;;;7.43;;
6549;SDS011;15142;48.888;9.134;2023-06-26T00:58:24;13.90;;;8.43;;
6549;SDS011;15142;48.888;9.134;2023-06-26T01:00:53;14.23;;;8.60;;
6549;SDS011;15142;48.888;9.134;2023-06-26T01:03:22;11.83;;;7.40;;
6549;SDS011;15142;48.888;9.134;2023-06-26T01:05:57;15.57;;;9.17;;
6549;SDS011;15142;48.888;9.134;2023-06-26T01:08:27;21.17;;;8.73;;
6549;SDS011;15142;48.888;9.134;2023-06-26T01:10:56;11.43;;;8.60;;
6549;SDS011;15142;48.888;9.134;2023-06-26T01:13:24;12.70;;;8.50;;
6549;SDS011;15142;48.888;9.134;2023-06-26T01:15:53;12.23;;;8.97;;
6549;SDS011;15142;48.888;9.134;2023-06-26T01:18:22;12.40;;;7.80;;
6549;SDS011;15142;48.888;9.134;2023-06-26T01:20:51;12.07;;;8.30;;
6549;SDS011;15142;48.888;9.134;2023-06-26T01:23:30;10.80;;;8.00;;
6549;SDS011;15142;48.888;9.134;2023-06-26T01:26:18;15.50;;;9.13;;
6549;SDS011;15142;48.888;9.134;2023-06-26T01:28:49;12.87;;;8.23;;
6549;SDS011;15142;48.888;9.134;2023-06-26T01:31:20;13.60;;;8.90;;
6549;SDS011;15142;48.888;9.134;2023-06-26T01:33:49;14.17;;;8.20;;
6549;SDS011;15142;48.888;9.134;2023-06-26T01:36:19;12.70;;;8.87;;
6549;SDS011;15142;48.888;9.134;2023-06-26T01:38:49;14.23;;;9.37;;
6549;SDS011;15142;48.888;9.134;2023-06-26T01:41:20;12.73;;;8.87;;
6549;SDS011;15142;48.888;9.134;2023-06-26T01:43:57;14.87;;;8.27;;
6549;SDS011;15142;48.888;9.134;2023-06-26T01:46:36;13.67;;;9.23;;
6549;SDS011;15142;48.888;9.134;2023-06-26T01:49:09;13.50;;;8.13;;
6549;SDS011;15142;48.888;9.134;2023-06-26T01:51:45;16.00;;;8.30;;
6549;SDS011;15142;48.888;9.134;2023-06-26T01:54:19;15.50;;;9.50;;
6549;SDS011;15142;48.888;9.134;2023-06-26T01:56:54;12.20;;;7.87;;
6549;SDS011;15142;48.888;9.134;2023-06-26T01:59:23;12.37;;;7.93;;
6549;SDS011;15142;48.888;9.134;2023-06-26T02:01:53;14.40;;;10.00;;
6549;SDS011;15142;48.888;9.134;2023-06-26T02:04:22;12.77;;;8.80;;
6549;SDS011;15142;48.888;9.134;2023-06-26T02:06:51;13.17;;;8.10;;
6549;SDS011;15142;48.888;9.134;2023-06-26T02:09:20;12.93;;;9.00;;
6549;SDS011;15142;48.888;9.134;2023-06-26T02:11:49;15.97;;;9.20;;
6549;SDS011;15142;48.888;9.134;2023-06-26T02:14:20;14.80;;;9.53;;
6549;SDS011;15142;48.888;9.134;2023-06-26T02:16:48;15.50;;;8.30;;
6549;SDS011;15142;48.888;9.134;2023-06-26T02:19:17;11.67;;;8.83;;
6549;SDS011;15142;48.888;9.134;2023-06-26T02:21:47;14.07;;;9.20;;
6549;SDS011;15142;48.888;9.134;2023-06-26T02:24:16;18.07;;;9.37;;
6549;SDS011;15142;48.888;9.134;2023-06-26T02:26:45;15.33;;;9.73;;
6549;SDS011;15142;48.888;9.134;2023-06-26T02:29:14;11.47;;;8.83;;
6549;SDS011;15142;48.888;9.134;2023-06-26T02:31:45;14.07;;;8.40;;
6549;SDS011;15142;48.888;9.134;2023-06-26T02:34:15;16.53;;;9.70;;
6549;SDS011;15142;48.888;9.134;2023-06-26T02:36:44;13.87;;;8.40;;
6549;SDS011;15142;48.888;9.134;2023-06-26T02:39:13;15.50;;;8.80;;
6549;SDS011;15142;48.888;9.134;2023-06-26T02:41:42;14.57;;;10.07;;
6549;SDS011;15142;48.888;9.134;2023-06-26T02:44:10;19.30;;;9.53;;
6549;SDS011;15142;48.888;9.134;2023-06-26T02:46:40;10.37;;;7.20;;
6549;SDS011;15142;48.888;9.134;2023-06-26T02:49:12;16.37;;;9.33;;
6549;SDS011;15142;48.888;9.134;2023-06-26T02:51:41;14.40;;;9.03;;
6549;SDS011;15142;48.888;9.134;2023-06-26T02:54:19;12.40;;;8.20;;
6549;SDS011;15142;48.888;9.134;2023-06-26T02:56:51;15.57;;;8.80;;
6549;SDS011;15142;48.888;9.134;2023-06-26T02:59:25;12.87;;;8.77;;
6549;SDS011;15142;48.888;9.134;2023-06-26T03:01:55;22.53;;;8.50;;
6549;SDS011;15142;48.888;9.134;2023-06-26T03:04:34;12.63;;;8.27;;
6549;SDS011;15142;48.888;9.134;2023-06-26T03:07:06;17.10;;;9.97;;
6549;SDS011;15142;48.888;9.134;2023-06-26T03:09:37;18.00;;;9.03;;
6549;SDS011;15142;48.888;9.134;2023-06-26T03:12:07;14.90;;;8.87;;
6549;SDS011;15142;48.888;9.134;2023-06-26T03:14:36;14.00;;;8.90;;
6549;SDS011;15142;48.888;9.134;2023-06-26T03:17:04;12.80;;;8.63;;
6549;SDS011;15142;48.888;9.134;2023-06-26T03:19:37;13.80;;;9.37;;
6549;SDS011;15142;48.888;9.134;2023-06-26T03:22:21;11.97;;;8.63;;
6549;SDS011;15142;48.888;9.134;2023-06-26T03:24:49;15.53;;;10.33;;
6549;SDS011;15142;48.888;9.134;2023-06-26T03:27:18;14.50;;;9.40;;
6549;SDS011;15142;48.888;9.134;2023-06-26T03:29:48;14.57;;;9.50;;
6549;SDS011;15142;48.888;9.134;2023-06-26T03:32:18;19.90;;;9.97;;
6549;SDS011;15142;48.888;9.134;2023-06-26T03:34:49;18.73;;;10.83;;
6549;SDS011;15142;48.888;9.134;2023-06-26T03:37:19;12.30;;;7.60;;
6549;SDS011;15142;48.888;9.134;2023-06-26T03:39:49;13.50;;;9.00;;
6549;SDS011;15142;48.888;9.134;2023-06-26T03:42:17;11.50;;;7.93;;
6549;SDS011;15142;48.888;9.134;2023-06-26T03:44:46;15.90;;;9.23;;
6549;SDS011;15142;48.888;9.134;2023-06-26T03:47:17;13.57;;;9.23;;
6549;SDS011;15142;48.888;9.134;2023-06-26T03:49:48;12.83;;;8.70;;
6549;SDS011;15142;48.888;9.134;2023-06-26T03:52:17;13.80;;;9.43;;
6549;SDS011;15142;48.888;9.134;2023-06-26T03:54:45;19.67;;;9.60;;
6549;SDS011;15142;48.888;9.134;2023-06-26T03:57:16;17.93;;;10.20;;
6549;SDS011;15142;48.888;9.134;2023-06-26T03:59:46;15.33;;;10.23;;
6549;SDS011;15142;48.888;9.134;2023-06-26T04:02:15;15.10;;;9.00;;
6549;SDS011;15142;48.888;9.134;2023-06-26T04:04:44;14.93;;;8.83;;
6549;SDS011;15142;48.888;9.134;2023-06-26T04:07:15;14.27;;;9.10;;
6549;SDS011;15142;48.888;9.134;2023-06-26T04:09:44;16.10;;;9.57;;
6549;SDS011;15142;48.888;9.134;2023-06-26T04:12:13;22.03;;;8.73;;
6549;SDS011;15142;48.888;9.134;2023-06-26T04:14:41;15.57;;;8.57;;
6549;SDS011;15142;48.888;9.134;2023-06-26T04:17:10;17.00;;;9.83;;
6549;SDS011;15142;48.888;9.134;2023-06-26T04:19:38;15.53;;;9.57;;
6549;SDS011;15142;48.888;9.134;2023-06-26T04:22:07;14.07;;;9.47;;
6549;SDS011;15142;48.888;9.134;2023-06-26T04:24:38;15.33;;;10.27;;
6549;SDS011;15142;48.888;9.134;2023-06-26T04:27:07;13.13;;;8.60;;
6549;SDS011;15142;48.888;9.134;2023-06-26T04:29:36;13.40;;;9.30;;
6549;SDS011;15142;48.888;9.134;2023-06-26T04:32:04;13.07;;;8.27;;
6549;SDS011;15142;48.888;9.134;2023-06-26T04:34:33;14.90;;;9.43;;
6549;SDS011;15142;48.888;9.134;2023-06-26T04:37:06;10.90;;;8.60;;
6549;SDS011;15142;48.888;9.134;2023-06-26T04:39:38;13.13;;;9.50;;
6549;SDS011;15142;48.888;9.134;2023-06-26T04:42:06;15.50;;;9.90;;
6549;SDS011;15142;48.888;9.134;2023-06-26T04:44:36;11.80;;;8.33;;
6549;SDS011;15142;48.888;9.134;2023-06-26T04:47:06;16.87;;;10.00;;
6549;SDS011;15142;48.888;9.134;2023-06-26T04:49:35;15.03;;;9.20;;
6549;SDS011;15142;48.888;9.134;2023-06-26T04:52:04;15.20;;;9.70;;
6549;SDS011;15142;48.888;9.134;2023-06-26T04:54:32;21.77;;;9.93;;
6549;SDS011;15142;48.888;9.134;2023-06-26T04:57:04;16.07;;;9.00;;
6549;SDS011;15142;48.888;9.134;2023-06-26T04:59:34;16.77;;;9.87;;
6549;SDS011;15142;48.888;9.134;2023-06-26T05:02:03;14.50;;;8.70;;
6549;SDS011;15142;48.888;9.134;2023-06-26T05:04:32;13.83;;;8.83;;
6549;SDS011;15142;48.888;9.134;2023-06-26T05:07:00;15.03;;;8.90;;
6549;SDS011;15142;48.888;9.134;2023-06-26T05:09:30;15.97;;;9.57;;
6549;SDS011;15142;48.888;9.134;2023-06-26T05:11:59;14.93;;;9.00;;
6549;SDS011;15142;48.888;9.134;2023-06-26T05:14:30;19.87;;;9.13;;
6549;SDS011;15142;48.888;9.134;2023-06-26T05:16:58;20.43;;;9.60;;
6549;SDS011;15142;48.888;9.134;2023-06-26T05:19:27;13.50;;;8.70;;
6549;SDS011;15142;48.888;9.134;2023-06-26T05:21:55;13.93;;;9.40;;
6549;SDS011;15142;48.888;9.134;2023-06-26T05:24:24;13.50;;;9.37;;
6549;SDS011;15142;48.888;9.134;2023-06-26T05:26:54;16.60;;;9.33;;
6549;SDS011;15142;48.888;9.134;2023-06-26T05:29:23;16.10;;;9.37;;
6549;SDS011;15142;48.888;9.134;2023-06-26T05:32:00;15.50;;;9.30;;
6549;SDS011;15142;48.888;9.134;2023-06-26T05:34:30;13.03;;;9.27;;
6549;SDS011;15142;48.888;9.134;2023-06-26T05:36:59;12.53;;;8.03;;
6549;SDS011;15142;48.888;9.134;2023-06-26T05:39:29;11.20;;;7.83;;
6549;SDS011;15142;48.888;9.134;2023-06-26T05:41:58;13.20;;;8.20;;
6549;SDS011;15142;48.888;9.134;2023-06-26T05:44:28;13.60;;;8.03;;
6549;SDS011;15142;48.888;9.134;2023-06-26T05:46:59;15.83;;;8.17;;
6549;SDS011;15142;48.888;9.134;2023-06-26T05:49:28;14.77;;;9.43;;
6549;SDS011;15142;48.888;9.134;2023-06-26T05:51:57;12.70;;;8.97;;
6549;SDS011;15142;48.888;9.134;2023-06-26T05:54:26;13.87;;;8.17;;
6549;SDS011;15142;48.888;9.134;2023-06-26T05:56:57;13.73;;;8.47;;
6549;SDS011;15142;48.888;9.134;2023-06-26T05:59:27;16.53;;;8.47;;
6549;SDS011;15142;48.888;9.134;2023-06-26T06:02:00;13.00;;;8.97;;
6549;SDS011;15142;48.888;9.134;2023-06-26T06:04:28;13.67;;;8.10;;
6549;SDS011;15142;48.888;9.134;2023-06-26T06:06:56;10.90;;;8.47;;
6549;SDS011;15142;48.888;9.134;2023-06-26T06:09:25;13.27;;;7.97;;
6549;SDS011;15142;48.888;9.134;2023-06-26T06:11:54;8.53;;;6.40;;
6549;SDS011;15142;48.888;9.134;2023-06-26T06:14:22;12.97;;;8.43;;
6549;SDS011;15142;48.888;9.134;2023-06-26T06:16:51;9.87;;;7.67;;
6549;SDS011;15142;48.888;9.134;2023-06-26T06:19:22;12.07;;;7.40;;
6549;SDS011;15142;48.888;9.134;2023-06-26T06:21:51;12.77;;;8.17;;
6549;SDS011;15142;48.888;9.134;2023-06-26T06:24:20;8.40;;;5.67;;
6549;SDS011;15142;48.888;9.134;2023-06-26T06:26:48;7.57;;;5.90;;
6549;SDS011;15142;48.888;9.134;2023-06-26T06:29:17;9.40;;;5.97;;
6549;SDS011;15142;48.888;9.134;2023-06-26T06:31:46;10.70;;;7.10;;
6549;SDS011;15142;48.888;9.134;2023-06-26T06:34:14;13.10;;;6.50;;
6549;SDS011;15142;48.888;9.134;2023-06-26T06:36:46;14.50;;;6.57;;
6549;SDS011;15142;48.888;9.134;2023-06-26T06:39:15;8.60;;;6.23;;
6549;SDS011;15142;48.888;9.134;2023-06-26T06:41:43;10.43;;;6.80;;
6549;SDS011;15142;48.888;9.134;2023-06-26T06:44:12;9.77;;;5.70;;
6549;SDS011;15142;48.888;9.134;2023-06-26T06:46:40;7.73;;;5.47;;
6549;SDS011;15142;48.888;9.134;2023-06-26T06:49:09;6.33;;;5.40;;
6549;SDS011;15142;48.888;9.134;2023-06-26T06:51:38;7.77;;;4.50;;
6549;SDS011;15142;48.888;9.134;2023-06-26T06:54:09;9.67;;;6.07;;
6549;SDS011;15142;48.888;9.134;2023-06-26T06:56:37;7.17;;;5.50;;
6549;SDS011;15142;48.888;9.134;2023-06-26T06:59:05;7.10;;;4.70;;
6549;SDS011;15142;48.888;9.134;2023-06-26T07:01:34;7.43;;;5.50;;
6549;SDS011;15142;48.888;9.134;2023-06-26T07:04:03;5.33;;;4.80;;
6549;SDS011;15142;48.888;9.134;2023-06-26T07:06:32;8.37;;;5.20;;
6549;SDS011;15142;48.888;9.134;2023-06-26T07:09:01;8.23;;;5.53;;
6549;SDS011;15142;48.888;9.134;2023-06-26T07:11:33;9.53;;;5.53;;
6549;SDS011;15142;48.888;9.134;2023-06-26T07:14:02;7.77;;;4.87;;
6549;SDS011;15142;48.888;9.134;2023-06-26T07:16:31;11.43;;;5.80;;
6549;SDS011;15142;48.888;9.134;2023-06-26T07:18:59;6.50;;;4.57;;
6549;SDS011;15142;48.888;9.134;2023-06-26T07:21:27;6.03;;;5.23;;
6549;SDS011;15142;48.888;9.134;2023-06-26T07:23:56;8.70;;;6.07;;
6549;SDS011;15142;48.888;9.134;2023-06-26T07:26:25;9.83;;;5.23;;
6549;SDS011;15142;48.888;9.134;2023-06-26T07:28:56;10.60;;;6.80;;
6549;SDS011;15142;48.888;9.134;2023-06-26T07:31:24;9.40;;;5.20;;
6549;SDS011;15142;48.888;9.134;2023-06-26T07:33:53;5.90;;;4.40;;
6549;SDS011;15142;48.888;9.134;2023-06-26T07:36:21;10.70;;;6.30;;
6549;SDS011;15142;48.888;9.134;2023-06-26T07:38:50;8.60;;;5.83;;
6549;SDS011;15142;48.888;9.134;2023-06-26T07:41:18;10.07;;;6.03;;
6549;SDS011;15142;48.888;9.134;2023-06-26T07:43:47;8.70;;;5.37;;
6549;SDS011;15142;48.888;9.134;2023-06-26T07:46:18;9.67;;;5.37;;
6549;SDS011;15142;48.888;9.134;2023-06-26T07:48:46;9.70;;;5.67;;
6549;SDS011;15142;48.888;9.134;2023-06-26T07:51:15;11.90;;;6.40;;
6549;SDS011;15142;48.888;9.134;2023-06-26T07:53:44;7.70;;;4.80;;
6549;SDS011;15142;48.888;9.134;2023-06-26T07:56:12;6.10;;;5.47;;
6549;SDS011;15142;48.888;9.134;2023-06-26T07:58:41;7.77;;;5.57;;
6549;SDS011;15142;48.888;9.134;2023-06-26T08:01:09;11.40;;;5.70;;
6549;SDS011;15142;48.888;9.134;2023-06-26T08:03:41;9.07;;;5.27;;
6549;SDS011;15142;48.888;9.134;2023-06-26T08:06:09;8.53;;;5.97;;
6549;SDS011;15142;48.888;9.134;2023-06-26T08:08:37;9.30;;;6.20;;
6549;SDS011;15142;48.888;9.134;2023-06-26T08:11:06;8.10;;;5.47;;
6549;SDS011;15142;48.888;9.134;2023-06-26T08:13:34;7.83;;;5.00;;
6549;SDS011;15142;48.888;9.134;2023-06-26T08:16:03;9.27;;;5.70;;
6549;SDS011;15142;48.888;9.134;2023-06-26T08:18:32;6.70;;;5.40;;
6549;SDS011;15142;48.888;9.134;2023-06-26T08:21:03;7.27;;;5.90;;
6549;SDS011;15142;48.888;9.134;2023-06-26T08:23:31;6.70;;;5.23;;
6549;SDS011;15142;48.888;9.134;2023-06-26T08:26:00;8.77;;;6.63;;
6549;SDS011;15142;48.888;9.134;2023-06-26T08:28:29;5.83;;;5.27;;
6549;SDS011;15142;48.888;9.134;2023-06-26T08:30:58;6.73;;;6.00;;
6549;SDS011;15142;48.888;9.134;2023-06-26T08:33:26;6.73;;;5.53;;
6549;SDS011;15142;48.888;9.134;2023-06-26T08:35:55;4.43;;;4.03;;
6549;SDS011;15142;48.888;9.134;2023-06-26T08:38:26;8.47;;;5.47;;
6549;SDS011;15142;48.888;9.134;2023-06-26T08:40:55;6.90;;;5.57;;
6549;SDS011;15142;48.888;9.134;2023-06-26T08:43:23;12.57;;;6.10;;
6549;SDS011;15142;48.888;9.134;2023-06-26T08:45:53;13.00;;;5.23;;
6549;SDS011;15142;48.888;9.134;2023-06-26T08:48:23;5.73;;;4.83;;
6549;SDS011;15142;48.888;9.134;2023-06-26T08:50:52;6.97;;;4.87;;
6549;SDS011;15142;48.888;9.134;2023-06-26T08:53:26;5.47;;;4.50;;
6549;SDS011;15142;48.888;9.134;2023-06-26T08:55:57;7.67;;;6.00;;
6549;SDS011;15142;48.888;9.134;2023-06-26T08:58:27;10.30;;;5.87;;
6549;SDS011;15142;48.888;9.134;2023-06-26T09:00:56;6.30;;;4.83;;
6549;SDS011;15142;48.888;9.134;2023-06-26T09:03:25;6.07;;;4.40;;
6549;SDS011;15142;48.888;9.134;2023-06-26T09:05:54;7.67;;;4.73;;
6549;SDS011;15142;48.888;9.134;2023-06-26T09:08:25;6.40;;;5.30;;
6549;SDS011;15142;48.888;9.134;2023-06-26T09:10:54;6.63;;;4.97;;
6549;SDS011;15142;48.888;9.134;2023-06-26T09:13:22;6.50;;;3.90;;
6549;SDS011;15142;48.888;9.134;2023-06-26T09:15:52;6.00;;;4.60;;
6549;SDS011;15142;48.888;9.134;2023-06-26T09:18:22;7.60;;;5.73;;
6549;SDS011;15142;48.888;9.134;2023-06-26T09:20:51;4.40;;;4.00;;
6549;SDS011;15142;48.888;9.134;2023-06-26T09:23:20;7.63;;;4.87;;
6549;SDS011;15142;48.888;9.134;2023-06-26T09:25:52;4.57;;;4.13;;
6549;SDS011;15142;48.888;9.134;2023-06-26T09:28:21;4.50;;;3.93;;
6549;SDS011;15142;48.888;9.134;2023-06-26T09:30:51;4.47;;;4.07;;
6549;SDS011;15142;48.888;9.134;2023-06-26T09:33:20;6.30;;;4.77;;
6549;SDS011;15142;48.888;9.134;2023-06-26T09:35:49;5.53;;;4.60;;
6549;SDS011;15142;48.888;9.134;2023-06-26T09:38:17;4.83;;;4.33;;
6549;SDS011;15142;48.888;9.134;2023-06-26T09:40:47;4.20;;;3.90;;
6549;SDS011;15142;48.888;9.134;2023-06-26T09:43:18;4.77;;;4.40;;
6549;SDS011;15142;48.888;9.134;2023-06-26T09:45:47;5.73;;;4.93;;
6549;SDS011;15142;48.888;9.134;2023-06-26T09:48:15;4.47;;;4.03;;
6549;SDS011;15142;48.888;9.134;2023-06-26T09:50:45;7.03;;;5.20;;
6549;SDS011;15142;48.888;9.134;2023-06-26T09:53:15;7.33;;;5.17;;
6549;SDS011;15142;48.888;9.134;2023-06-26T09:55:43;5.43;;;4.80;;
6549;SDS011;15142;48.888;9.134;2023-06-26T09:58:12;7.23;;;5.30;;
6549;SDS011;15142;48.888;9.134;2023-06-26T10:00:45;8.60;;;5.50;;
6549;SDS011;15142;48.888;9.134;2023-06-26T10:03:14;11.40;;;4.83;;
6549;SDS011;15142;48.888;9.134;2023-06-26T10:05:43;9.30;;;5.80;;
6549;SDS011;15142;48.888;9.134;2023-06-26T10:08:13;7.97;;;5.70;;
6549;SDS011;15142;48.888;9.134;2023-06-26T10:10:41;9.87;;;5.00;;
6549;SDS011;15142;48.888;9.134;2023-06-26T10:13:11;7.80;;;4.63;;
6549;SDS011;15142;48.888;9.134;2023-06-26T10:15:46;6.27;;;5.37;;
6549;SDS011;15142;48.888;9.134;2023-06-26T10:18:17;5.70;;;5.00;;
6549;SDS011;15142;48.888;9.134;2023-06-26T10:20:47;6.00;;;5.40;;
6549;SDS011;15142;48.888;9.134;2023-06-26T10:23:17;8.17;;;5.87;;
6549;SDS011;15142;48.888;9.134;2023-06-26T10:25:48;5.73;;;5.13;;
6549;SDS011;15142;48.888;9.134;2023-06-26T10:28:20;5.60;;;5.03;;
6549;SDS011;15142;48.888;9.134;2023-06-26T10:30:53;5.60;;;5.10;;
6549;SDS011;15142;48.888;9.134;2023-06-26T10:33:23;5.13;;;4.50;;
6549;SDS011;15142;48.888;9.134;2023-06-26T10:35:52;8.43;;;5.90;;
6549;SDS011;15142;48.888;9.134;2023-06-26T10:38:21;8.23;;;5.30;;
6549;SDS011;15142;48.888;9.134;2023-06-26T10:40:51;6.30;;;5.33;;
6549;SDS011;15142;48.888;9.134;2023-06-26T10:43:19;9.80;;;6.20;;
6549;SDS011;15142;48.888;9.134;2023-06-26T10:45:48;5.80;;;4.67;;
6549;SDS011;15142;48.888;9.134;2023-06-26T10:48:22;6.00;;;5.33;;
6549;SDS011;15142;48.888;9.134;2023-06-26T10:50:57;6.03;;;4.33;;
6549;SDS011;15142;48.888;9.134;2023-06-26T10:53:40;8.90;;;5.47;;
6549;SDS011;15142;48.888;9.134;2023-06-26T10:56:10;5.83;;;4.87;;
6549;SDS011;15142;48.888;9.134;2023-06-26T10:58:42;5.83;;;5.33;;
6549;SDS011;15142;48.888;9.134;2023-06-26T11:01:19;5.90;;;5.20;;
6549;SDS011;15142;48.888;9.134;2023-06-26T11:04:00;6.63;;;5.30;;
6549;SDS011;15142;48.888;9.134;2023-06-26T11:06:31;8.37;;;5.50;;
6549;SDS011;15142;48.888;9.134;2023-06-26T11:09:07;7.00;;;5.73;;
6549;SDS011;15142;48.888;9.134;2023-06-26T11:14:34;9.43;;;5.80;;
6549;SDS011;15142;48.888;9.134;2023-06-26T11:17:03;9.60;;;5.10;;
6549;SDS011;15142;48.888;9.134;2023-06-26T11:19:35;6.97;;;4.97;;
6549;SDS011;15142;48.888;9.134;2023-06-26T11:22:04;7.20;;;5.60;;
6549;SDS011;15142;48.888;9.134;2023-06-26T11:24:33;7.33;;;5.90;;
6549;SDS011;15142;48.888;9.134;2023-06-26T11:27:02;18.20;;;5.23;;
6549;SDS011;15142;48.888;9.134;2023-06-26T11:29:33;6.57;;;5.30;;
6549;SDS011;15142;48.888;9.134;2023-06-26T11:32:03;9.60;;;5.87;;
6549;SDS011;15142;48.888;9.134;2023-06-26T11:34:36;6.90;;;5.40;;
6549;SDS011;15142;48.888;9.134;2023-06-26T11:37:05;11.00;;;5.90;;
6549;SDS011;15142;48.888;9.134;2023-06-26T11:39:34;28.73;;;6.37;;
6549;SDS011;15142;48.888;9.134;2023-06-26T11:42:04;8.93;;;5.10;;
6549;SDS011;15142;48.888;9.134;2023-06-26T11:44:39;7.37;;;5.80;;
6549;SDS011;15142;48.888;9.134;2023-06-26T11:47:12;10.43;;;5.10;;
6549;SDS011;15142;48.888;9.134;2023-06-26T11:49:44;13.57;;;6.20;;
6549;SDS011;15142;48.888;9.134;2023-06-26T11:52:14;7.57;;;5.43;;
6549;SDS011;15142;48.888;9.134;2023-06-26T11:54:44;6.60;;;5.90;;
6549;SDS011;15142;48.888;9.134;2023-06-26T11:57:14;6.63;;;5.77;;
6549;SDS011;15142;48.888;9.134;2023-06-26T11:59:44;6.60;;;5.20;;
6549;SDS011;15142;48.888;9.134;2023-06-26T12:02:13;7.50;;;5.23;;
6549;SDS011;15142;48.888;9.134;2023-06-26T12:04:45;5.40;;;4.80;;
6549;SDS011;15142;48.888;9.134;2023-06-26T12:07:14;8.80;;;6.00;;
6549;SDS011;15142;48.888;9.134;2023-06-26T12:09:44;5.77;;;5.23;;
6549;SDS011;15142;48.888;9.134;2023-06-26T12:12:16;7.33;;;5.60;;
6549;SDS011;15142;48.888;9.134;2023-06-26T12:14:46;14.40;;;6.00;;
6549;SDS011;15142;48.888;9.134;2023-06-26T12:17:15;5.17;;;4.70;;
6549;SDS011;15142;48.888;9.134;2023-06-26T12:19:46;6.50;;;5.27;;
6549;SDS011;15142;48.888;9.134;2023-06-26T12:22:16;11.43;;;5.30;;
6549;SDS011;15142;48.888;9.134;2023-06-26T12:24:46;5.83;;;4.93;;
6549;SDS011;15142;48.888;9.134;2023-06-26T12:27:15;6.40;;;5.20;;
6549;SDS011;15142;48.888;9.134;2023-06-26T12:29:49;15.73;;;6.33;;
6549;SDS011;15142;48.888;9.134;2023-06-26T12:32:19;6.57;;;4.83;;
6549;SDS011;15142;48.888;9.134;2023-06-26T12:34:52;10.17;;;5.20;;
6549;SDS011;15142;48.888;9.134;2023-06-26T12:37:21;7.97;;;5.50;;
6549;SDS011;15142;48.888;9.134;2023-06-26T12:39:50;7.23;;;4.40;;
6549;SDS011;15142;48.888;9.134;2023-06-26T12:42:20;5.90;;;4.63;;
6549;SDS011;15142;48.888;9.134;2023-06-26T12:44:50;5.53;;;5.00;;
6549;SDS011;15142;48.888;9.134;2023-06-26T12:47:23;5.97;;;5.30;;
6549;SDS011;15142;48.888;9.134;2023-06-26T12:49:55;14.20;;;5.17;;
6549;SDS011;15142;48.888;9.134;2023-06-26T12:52:23;8.50;;;4.60;;
6549;SDS011;15142;48.888;9.134;2023-06-26T12:54:53;6.23;;;4.97;;
6549;SDS011;15142;48.888;9.134;2023-06-26T12:57:22;6.63;;;5.20;;
6549;SDS011;15142;48.888;9.134;2023-06-26T12:59:51;11.50;;;5.60;;
6549;SDS011;15142;48.888;9.134;2023-06-26T13:02:19;6.50;;;4.43;;
6549;SDS011;15142;48.888;9.134;2023-06-26T13:04:48;4.40;;;3.93;;
6549;SDS011;15142;48.888;9.134;2023-06-26T13:07:19;6.17;;;4.40;;
6549;SDS011;15142;48.888;9.134;2023-06-26T13:09:50;7.40;;;4.03;;
6549;SDS011;15142;48.888;9.134;2023-06-26T13:12:19;7.03;;;4.73;;
6549;SDS011;15142;48.888;9.134;2023-06-26T13:14:47;6.70;;;4.60;;
6549;SDS011;15142;48.888;9.134;2023-06-26T13:17:16;6.80;;;4.77;;
6549;SDS011;15142;48.888;9.134;2023-06-26T13:19:44;12.50;;;6.50;;
6549;SDS011;15142;48.888;9.134;2023-06-26T13:22:13;7.33;;;4.03;;
6549;SDS011;15142;48.888;9.134;2023-06-26T13:24:44;6.23;;;4.57;;
6549;SDS011;15142;48.888;9.134;2023-06-26T13:27:13;8.13;;;4.10;;
6549;SDS011;15142;48.888;9.134;2023-06-26T13:29:41;7.33;;;4.73;;
6549;SDS011;15142;48.888;9.134;2023-06-26T13:32:10;6.23;;;4.53;;
6549;SDS011;15142;48.888;9.134;2023-06-26T13:34:38;6.40;;;4.83;;
6549;SDS011;15142;48.888;9.134;2023-06-26T13:37:07;4.70;;;4.10;;
6549;SDS011;15142;48.888;9.134;2023-06-26T13:39:35;3.63;;;3.20;;
6549;SDS011;15142;48.888;9.134;2023-06-26T13:42:07;9.53;;;4.50;;
6549;SDS011;15142;48.888;9.134;2023-06-26T13:44:36;8.03;;;4.97;;
6549;SDS011;15142;48.888;9.134;2023-06-26T13:47:05;6.43;;;3.97;;
6549;SDS011;15142;48.888;9.134;2023-06-26T13:49:34;5.23;;;3.87;;
6549;SDS011;15142;48.888;9.134;2023-06-26T13:52:02;4.23;;;3.23;;
6549;SDS011;15142;48.888;9.134;2023-06-26T13:54:33;5.40;;;3.53;;
6549;SDS011;15142;48.888;9.134;2023-06-26T13:57:03;3.50;;;3.20;;
6549;SDS011;15142;48.888;9.134;2023-06-26T13:59:36;4.00;;;3.00;;
6549;SDS011;15142;48.888;9.134;2023-06-26T14:02:06;3.40;;;3.03;;
6549;SDS011;15142;48.888;9.134;2023-06-26T14:04:35;2.87;;;2.40;;
6549;SDS011;15142;48.888;9.134;2023-06-26T14:07:04;7.10;;;2.90;;
6549;SDS011;15142;48.888;9.134;2023-06-26T14:09:33;2.90;;;2.50;;
6549;SDS011;15142;48.888;9.134;2023-06-26T14:12:02;4.13;;;3.20;;
6549;SDS011;15142;48.888;9.134;2023-06-26T14:14:31;6.00;;;2.93;;
6549;SDS011;15142;48.888;9.134;2023-06-26T14:17:02;2.90;;;2.70;;
6549;SDS011;15142;48.888;9.134;2023-06-26T14:19:31;3.73;;;3.10;;
6549;SDS011;15142;48.888;9.134;2023-06-26T14:22:00;5.60;;;2.90;;
6549;SDS011;15142;48.888;9.134;2023-06-26T14:24:28;7.23;;;3.90;;
6549;SDS011;15142;48.888;9.134;2023-06-26T14:26:57;3.40;;;3.10;;
6549;SDS011;15142;48.888;9.134;2023-06-26T14:29:25;3.20;;;2.90;;
6549;SDS011;15142;48.888;9.134;2023-06-26T14:31:54;7.10;;;3.93;;
6549;SDS011;15142;48.888;9.134;2023-06-26T14:34:25;4.87;;;3.20;;
6549;SDS011;15142;48.888;9.134;2023-06-26T14:36:54;3.43;;;2.80;;
6549;SDS011;15142;48.888;9.134;2023-06-26T14:39:22;3.90;;;3.00;;
6549;SDS011;15142;48.888;9.134;2023-06-26T14:41:51;10.20;;;2.53;;
6549;SDS011;15142;48.888;9.134;2023-06-26T14:44:20;3.97;;;2.70;;
6549;SDS011;15142;48.888;9.134;2023-06-26T14:46:49;6.30;;;3.03;;
6549;SDS011;15142;48.888;9.134;2023-06-26T14:49:17;3.43;;;2.80;;
6549;SDS011;15142;48.888;9.134;2023-06-26T14:51:49;2.37;;;2.03;;
6549;SDS011;15142;48.888;9.134;2023-06-26T14:54:17;4.50;;;2.80;;
6549;SDS011;15142;48.888;9.134;2023-06-26T14:56:46;4.67;;;3.23;;
6549;SDS011;15142;48.888;9.134;2023-06-26T14:59:15;3.47;;;2.97;;
6549;SDS011;15142;48.888;9.134;2023-06-26T15:01:43;4.53;;;3.50;;
6549;SDS011;15142;48.888;9.134;2023-06-26T15:04:12;9.50;;;3.97;;
6549;SDS011;15142;48.888;9.134;2023-06-26T15:06:40;3.90;;;3.50;;
6549;SDS011;15142;48.888;9.134;2023-06-26T15:09:11;4.43;;;4.03;;
6549;SDS011;15142;48.888;9.134;2023-06-26T15:11:40;4.30;;;3.50;;
6549;SDS011;15142;48.888;9.134;2023-06-26T15:14:09;6.83;;;3.93;;